sensor_id;sensor_type;location;lat;lon;timestamp;temperature;humidity
11229;DHT22;5671;47.936;8.716;2022-07-06T00:01:05;12.40;74.00
11229;DHT22;5671;47.936;8.716;2022-07-06T00:03:33;12.30;73.50
11229;DHT22;5671;47.936;8.716;2022-07-06T00:06:00;12.30;74.00
11229;DHT22;5671;47.936;8.716;2022-07-06T00:08:27;12.30;74.80
11229;DHT22;5671;47.936;8.716;2022-07-06T00:10:54;12.30;75.40
11229;DHT22;5671;47.936;8.716;2022-07-06T00:13:21;12.20;74.20
11229;DHT22;5671;47.936;8.716;2022-07-06T00:15:48;12.20;73.50
11229;DHT22;5671;47.936;8.716;2022-07-06T00:18:15;12.20;72.90
11229;DHT22;5671;47.936;8.716;2022-07-06T00:20:43;12.10;71.70
11229;DHT22;5671;47.936;8.716;2022-07-06T00:23:10;12.10;72.20
11229;DHT22;5671;47.936;8.716;2022-07-06T00:25:38;12.00;72.20
11229;DHT22;5671;47.936;8.716;2022-07-06T00:28:05;12.00;72.70
11229;DHT22;5671;47.936;8.716;2022-07-06T00:30:32;12.00;72.80
11229;DHT22;5671;47.936;8.716;2022-07-06T00:32:59;11.90;73.30
11229;DHT22;5671;47.936;8.716;2022-07-06T00:35:26;11.90;75.10
11229;DHT22;5671;47.936;8.716;2022-07-06T00:37:54;11.80;75.10
11229;DHT22;5671;47.936;8.716;2022-07-06T00:40:21;11.80;73.70
11229;DHT22;5671;47.936;8.716;2022-07-06T00:42:49;11.70;74.40
11229;DHT22;5671;47.936;8.716;2022-07-06T00:45:17;11.70;75.10
11229;DHT22;5671;47.936;8.716;2022-07-06T00:47:45;11.70;74.60
11229;DHT22;5671;47.936;8.716;2022-07-06T00:50:14;11.60;74.20
11229;DHT22;5671;47.936;8.716;2022-07-06T00:52:45;11.60;74.00
11229;DHT22;5671;47.936;8.716;2022-07-06T00:55:17;11.60;75.20
11229;DHT22;5671;47.936;8.716;2022-07-06T00:57:45;11.60;74.40
11229;DHT22;5671;47.936;8.716;2022-07-06T01:00:14;11.50;75.80
11229;DHT22;5671;47.936;8.716;2022-07-06T01:02:42;11.50;75.30
11229;DHT22;5671;47.936;8.716;2022-07-06T01:05:10;11.40;74.80
11229;DHT22;5671;47.936;8.716;2022-07-06T01:07:38;11.40;75.40
11229;DHT22;5671;47.936;8.716;2022-07-06T01:10:06;11.40;74.70
11229;DHT22;5671;47.936;8.716;2022-07-06T01:12:39;11.30;74.80
11229;DHT22;5671;47.936;8.716;2022-07-06T01:15:09;11.30;74.10
11229;DHT22;5671;47.936;8.716;2022-07-06T01:17:37;11.20;75.30
11229;DHT22;5671;47.936;8.716;2022-07-06T01:20:09;11.30;77.80
11229;DHT22;5671;47.936;8.716;2022-07-06T01:22:36;11.20;76.40
11229;DHT22;5671;47.936;8.716;2022-07-06T01:25:04;11.20;77.50
11229;DHT22;5671;47.936;8.716;2022-07-06T01:27:31;11.20;76.70
11229;DHT22;5671;47.936;8.716;2022-07-06T01:30:00;11.10;77.00
11229;DHT22;5671;47.936;8.716;2022-07-06T01:32:27;11.10;76.40
11229;DHT22;5671;47.936;8.716;2022-07-06T01:34:53;11.10;75.80
11229;DHT22;5671;47.936;8.716;2022-07-06T01:37:22;11.10;77.20
11229;DHT22;5671;47.936;8.716;2022-07-06T01:39:49;11.10;78.10
11229;DHT22;5671;47.936;8.716;2022-07-06T01:42:16;11.10;76.40
11229;DHT22;5671;47.936;8.716;2022-07-06T01:44:43;11.00;77.90
11229;DHT22;5671;47.936;8.716;2022-07-06T01:47:10;11.00;76.80
11229;DHT22;5671;47.936;8.716;2022-07-06T01:49:37;11.00;75.70
11229;DHT22;5671;47.936;8.716;2022-07-06T01:52:05;11.00;76.80
11229;DHT22;5671;47.936;8.716;2022-07-06T01:54:33;11.00;76.70
11229;DHT22;5671;47.936;8.716;2022-07-06T01:57:00;10.90;76.10
11229;DHT22;5671;47.936;8.716;2022-07-06T01:59:27;10.90;76.40
11229;DHT22;5671;47.936;8.716;2022-07-06T02:01:54;10.90;77.10
11229;DHT22;5671;47.936;8.716;2022-07-06T02:04:21;10.90;76.60
11229;DHT22;5671;47.936;8.716;2022-07-06T02:06:48;10.90;77.20
11229;DHT22;5671;47.936;8.716;2022-07-06T02:09:15;10.80;77.60
11229;DHT22;5671;47.936;8.716;2022-07-06T02:11:44;10.80;79.00
11229;DHT22;5671;47.936;8.716;2022-07-06T02:14:11;10.80;78.70
11229;DHT22;5671;47.936;8.716;2022-07-06T02:16:38;10.70;77.10
11229;DHT22;5671;47.936;8.716;2022-07-06T02:19:05;10.70;78.40
11229;DHT22;5671;47.936;8.716;2022-07-06T02:21:32;10.70;78.40
11229;DHT22;5671;47.936;8.716;2022-07-06T02:23:59;10.70;76.90
11229;DHT22;5671;47.936;8.716;2022-07-06T02:26:26;10.60;76.80
11229;DHT22;5671;47.936;8.716;2022-07-06T02:28:54;10.60;76.80
11229;DHT22;5671;47.936;8.716;2022-07-06T02:31:21;10.60;77.40
11229;DHT22;5671;47.936;8.716;2022-07-06T02:33:48;10.50;76.60
11229;DHT22;5671;47.936;8.716;2022-07-06T02:36:15;10.50;77.90
11229;DHT22;5671;47.936;8.716;2022-07-06T02:38:42;10.50;76.70
11229;DHT22;5671;47.936;8.716;2022-07-06T02:41:09;10.50;76.20
11229;DHT22;5671;47.936;8.716;2022-07-06T02:43:37;10.40;77.60
11229;DHT22;5671;47.936;8.716;2022-07-06T02:46:06;10.40;77.10
11229;DHT22;5671;47.936;8.716;2022-07-06T02:48:33;10.40;78.40
11229;DHT22;5671;47.936;8.716;2022-07-06T02:51:00;10.40;77.90
11229;DHT22;5671;47.936;8.716;2022-07-06T02:53:28;10.40;77.70
11229;DHT22;5671;47.936;8.716;2022-07-06T02:55:54;10.40;76.40
11229;DHT22;5671;47.936;8.716;2022-07-06T02:58:21;10.30;76.90
11229;DHT22;5671;47.936;8.716;2022-07-06T03:00:48;10.30;76.60
11229;DHT22;5671;47.936;8.716;2022-07-06T03:03:17;10.30;76.60
11229;DHT22;5671;47.936;8.716;2022-07-06T03:05:43;10.20;76.50
11229;DHT22;5671;47.936;8.716;2022-07-06T03:08:12;10.20;77.20
11229;DHT22;5671;47.936;8.716;2022-07-06T03:10:39;10.20;78.40
11229;DHT22;5671;47.936;8.716;2022-07-06T03:13:06;10.20;78.20
11229;DHT22;5671;47.936;8.716;2022-07-06T03:15:32;10.20;78.10
11229;DHT22;5671;47.936;8.716;2022-07-06T03:17:59;10.20;78.20
11229;DHT22;5671;47.936;8.716;2022-07-06T03:20:28;10.10;80.00
11229;DHT22;5671;47.936;8.716;2022-07-06T03:22:55;10.10;80.10
11229;DHT22;5671;47.936;8.716;2022-07-06T03:25:22;10.10;78.90
11229;DHT22;5671;47.936;8.716;2022-07-06T03:27:49;10.10;79.10
11229;DHT22;5671;47.936;8.716;2022-07-06T03:30:16;10.10;79.20
11229;DHT22;5671;47.936;8.716;2022-07-06T03:32:43;10.10;78.40
11229;DHT22;5671;47.936;8.716;2022-07-06T03:35:10;10.10;78.20
11229;DHT22;5671;47.936;8.716;2022-07-06T03:37:38;10.10;78.30
11229;DHT22;5671;47.936;8.716;2022-07-06T03:40:06;10.00;78.70
11229;DHT22;5671;47.936;8.716;2022-07-06T03:42:33;10.00;77.50
11229;DHT22;5671;47.936;8.716;2022-07-06T03:45:00;10.00;77.50
11229;DHT22;5671;47.936;8.716;2022-07-06T03:47:27;10.00;78.60
11229;DHT22;5671;47.936;8.716;2022-07-06T03:49:54;10.00;79.50
11229;DHT22;5671;47.936;8.716;2022-07-06T03:52:21;9.90;78.80
11229;DHT22;5671;47.936;8.716;2022-07-06T03:54:49;9.90;78.20
11229;DHT22;5671;47.936;8.716;2022-07-06T03:57:16;9.90;78.20
11229;DHT22;5671;47.936;8.716;2022-07-06T03:59:43;9.90;77.90
11229;DHT22;5671;47.936;8.716;2022-07-06T04:02:12;9.90;77.70
11229;DHT22;5671;47.936;8.716;2022-07-06T04:04:39;9.90;78.90
11229;DHT22;5671;47.936;8.716;2022-07-06T04:07:06;9.90;79.70
11229;DHT22;5671;47.936;8.716;2022-07-06T04:09:33;9.90;79.00
11229;DHT22;5671;47.936;8.716;2022-07-06T04:12:02;9.90;79.20
11229;DHT22;5671;47.936;8.716;2022-07-06T04:14:29;9.90;79.00
11229;DHT22;5671;47.936;8.716;2022-07-06T04:17:01;9.90;80.70
11229;DHT22;5671;47.936;8.716;2022-07-06T04:19:49;9.90;81.10
11229;DHT22;5671;47.936;8.716;2022-07-06T04:22:16;9.90;81.20
11229;DHT22;5671;47.936;8.716;2022-07-06T04:24:43;9.90;80.90
11229;DHT22;5671;47.936;8.716;2022-07-06T04:27:11;9.90;79.90
11229;DHT22;5671;47.936;8.716;2022-07-06T04:29:38;9.90;79.00
11229;DHT22;5671;47.936;8.716;2022-07-06T04:32:06;9.90;79.70
11229;DHT22;5671;47.936;8.716;2022-07-06T04:34:33;9.90;79.60
11229;DHT22;5671;47.936;8.716;2022-07-06T04:37:00;9.90;79.80
11229;DHT22;5671;47.936;8.716;2022-07-06T04:39:28;9.90;80.00
11229;DHT22;5671;47.936;8.716;2022-07-06T04:41:57;9.90;80.30
11229;DHT22;5671;47.936;8.716;2022-07-06T04:44:28;9.90;80.60
11229;DHT22;5671;47.936;8.716;2022-07-06T04:46:55;9.90;80.70
11229;DHT22;5671;47.936;8.716;2022-07-06T04:49:22;9.90;80.40
11229;DHT22;5671;47.936;8.716;2022-07-06T04:51:49;9.90;80.00
11229;DHT22;5671;47.936;8.716;2022-07-06T04:54:15;10.00;79.10
11229;DHT22;5671;47.936;8.716;2022-07-06T04:56:42;10.00;79.10
11229;DHT22;5671;47.936;8.716;2022-07-06T04:59:09;10.00;80.00
11229;DHT22;5671;47.936;8.716;2022-07-06T05:01:41;10.00;79.10
11229;DHT22;5671;47.936;8.716;2022-07-06T05:04:08;10.10;81.10
11229;DHT22;5671;47.936;8.716;2022-07-06T05:06:35;10.20;81.80
11229;DHT22;5671;47.936;8.716;2022-07-06T05:09:02;10.20;80.90
11229;DHT22;5671;47.936;8.716;2022-07-06T05:11:29;10.30;79.70
11229;DHT22;5671;47.936;8.716;2022-07-06T05:13:56;10.30;80.70
11229;DHT22;5671;47.936;8.716;2022-07-06T05:16:23;10.40;82.10
11229;DHT22;5671;47.936;8.716;2022-07-06T05:18:52;10.50;82.60
11229;DHT22;5671;47.936;8.716;2022-07-06T05:21:18;10.60;83.20
11229;DHT22;5671;47.936;8.716;2022-07-06T05:23:45;10.70;82.30
11229;DHT22;5671;47.936;8.716;2022-07-06T05:26:12;10.80;82.10
11229;DHT22;5671;47.936;8.716;2022-07-06T05:28:39;10.80;81.70
11229;DHT22;5671;47.936;8.716;2022-07-06T05:31:06;11.00;81.60
11229;DHT22;5671;47.936;8.716;2022-07-06T05:33:33;11.10;81.10
11229;DHT22;5671;47.936;8.716;2022-07-06T05:36:02;11.20;81.30
11229;DHT22;5671;47.936;8.716;2022-07-06T05:38:31;11.40;80.40
11229;DHT22;5671;47.936;8.716;2022-07-06T05:40:58;11.50;81.00
11229;DHT22;5671;47.936;8.716;2022-07-06T05:43:25;11.60;80.70
11229;DHT22;5671;47.936;8.716;2022-07-06T05:45:52;12.00;79.90
11229;DHT22;5671;47.936;8.716;2022-07-06T05:48:19;13.10;75.00
11229;DHT22;5671;47.936;8.716;2022-07-06T05:51:05;13.50;73.20
11229;DHT22;5671;47.936;8.716;2022-07-06T05:53:32;13.70;74.10
11229;DHT22;5671;47.936;8.716;2022-07-06T05:55:59;13.90;73.90
11229;DHT22;5671;47.936;8.716;2022-07-06T05:58:26;14.50;72.30
11229;DHT22;5671;47.936;8.716;2022-07-06T06:00:53;15.20;69.00
11229;DHT22;5671;47.936;8.716;2022-07-06T06:03:20;15.80;66.70
11229;DHT22;5671;47.936;8.716;2022-07-06T06:05:49;16.40;65.10
11229;DHT22;5671;47.936;8.716;2022-07-06T06:08:19;16.80;65.60
11229;DHT22;5671;47.936;8.716;2022-07-06T06:10:46;17.10;63.00
11229;DHT22;5671;47.936;8.716;2022-07-06T06:13:14;17.20;61.30
11229;DHT22;5671;47.936;8.716;2022-07-06T06:15:40;17.00;61.60
11229;DHT22;5671;47.936;8.716;2022-07-06T06:18:07;16.70;62.00
11229;DHT22;5671;47.936;8.716;2022-07-06T06:20:34;16.50;63.20
11229;DHT22;5671;47.936;8.716;2022-07-06T06:23:01;16.20;63.50
11229;DHT22;5671;47.936;8.716;2022-07-06T06:25:33;16.00;64.60
11229;DHT22;5671;47.936;8.716;2022-07-06T06:28:00;15.80;64.50
11229;DHT22;5671;47.936;8.716;2022-07-06T06:30:28;15.70;65.30
11229;DHT22;5671;47.936;8.716;2022-07-06T06:33:08;15.60;65.60
11229;DHT22;5671;47.936;8.716;2022-07-06T06:35:36;15.60;66.20
11229;DHT22;5671;47.936;8.716;2022-07-06T06:38:03;15.50;66.80
11229;DHT22;5671;47.936;8.716;2022-07-06T06:40:31;15.50;67.00
11229;DHT22;5671;47.936;8.716;2022-07-06T06:42:58;15.50;67.10
11229;DHT22;5671;47.936;8.716;2022-07-06T06:45:25;15.50;66.90
11229;DHT22;5671;47.936;8.716;2022-07-06T06:47:52;15.50;66.20
11229;DHT22;5671;47.936;8.716;2022-07-06T06:50:19;15.50;66.70
11229;DHT22;5671;47.936;8.716;2022-07-06T06:52:48;15.50;66.70
11229;DHT22;5671;47.936;8.716;2022-07-06T06:55:15;15.60;66.70
11229;DHT22;5671;47.936;8.716;2022-07-06T06:57:44;15.60;67.60
11229;DHT22;5671;47.936;8.716;2022-07-06T07:00:13;15.70;67.00
11229;DHT22;5671;47.936;8.716;2022-07-06T07:02:40;15.70;66.00
11229;DHT22;5671;47.936;8.716;2022-07-06T07:05:07;15.80;66.50
11229;DHT22;5671;47.936;8.716;2022-07-06T07:07:34;15.80;66.00
11229;DHT22;5671;47.936;8.716;2022-07-06T07:10:02;15.90;66.10
11229;DHT22;5671;47.936;8.716;2022-07-06T07:12:29;15.90;66.30
11229;DHT22;5671;47.936;8.716;2022-07-06T07:14:58;16.00;66.20
11229;DHT22;5671;47.936;8.716;2022-07-06T07:17:25;16.00;67.90
11229;DHT22;5671;47.936;8.716;2022-07-06T07:19:52;16.10;67.10
11229;DHT22;5671;47.936;8.716;2022-07-06T07:22:19;16.10;64.40
11229;DHT22;5671;47.936;8.716;2022-07-06T07:24:46;16.20;65.70
11229;DHT22;5671;47.936;8.716;2022-07-06T07:27:13;16.30;65.00
11229;DHT22;5671;47.936;8.716;2022-07-06T07:29:40;16.30;65.90
11229;DHT22;5671;47.936;8.716;2022-07-06T07:32:08;16.40;64.80
11229;DHT22;5671;47.936;8.716;2022-07-06T07:34:35;16.40;64.50
11229;DHT22;5671;47.936;8.716;2022-07-06T07:37:03;16.50;63.50
11229;DHT22;5671;47.936;8.716;2022-07-06T07:39:30;16.50;65.50
11229;DHT22;5671;47.936;8.716;2022-07-06T07:41:57;16.60;64.90
11229;DHT22;5671;47.936;8.716;2022-07-06T07:44:24;16.60;62.60
11229;DHT22;5671;47.936;8.716;2022-07-06T07:46:52;16.70;64.60
11229;DHT22;5671;47.936;8.716;2022-07-06T07:49:21;16.80;63.90
11229;DHT22;5671;47.936;8.716;2022-07-06T07:51:48;16.80;63.60
11229;DHT22;5671;47.936;8.716;2022-07-06T07:54:15;16.90;63.50
11229;DHT22;5671;47.936;8.716;2022-07-06T07:56:42;17.00;66.00
11229;DHT22;5671;47.936;8.716;2022-07-06T07:59:09;17.00;63.00
11229;DHT22;5671;47.936;8.716;2022-07-06T08:01:37;17.10;60.60
11229;DHT22;5671;47.936;8.716;2022-07-06T08:04:04;17.10;62.10
11229;DHT22;5671;47.936;8.716;2022-07-06T08:06:32;17.20;62.30
11229;DHT22;5671;47.936;8.716;2022-07-06T08:08:59;17.20;63.30
11229;DHT22;5671;47.936;8.716;2022-07-06T08:11:28;17.20;63.20
11229;DHT22;5671;47.936;8.716;2022-07-06T08:13:55;17.20;62.30
11229;DHT22;5671;47.936;8.716;2022-07-06T08:16:22;17.30;60.70
11229;DHT22;5671;47.936;8.716;2022-07-06T08:18:49;17.30;61.40
11229;DHT22;5671;47.936;8.716;2022-07-06T08:21:16;17.30;61.10
11229;DHT22;5671;47.936;8.716;2022-07-06T08:23:45;17.40;62.00
11229;DHT22;5671;47.936;8.716;2022-07-06T08:26:12;17.50;64.40
11229;DHT22;5671;47.936;8.716;2022-07-06T08:28:39;17.50;63.20
11229;DHT22;5671;47.936;8.716;2022-07-06T08:31:06;17.50;59.80
11229;DHT22;5671;47.936;8.716;2022-07-06T08:33:33;17.60;62.50
11229;DHT22;5671;47.936;8.716;2022-07-06T08:36:00;17.70;59.20
11229;DHT22;5671;47.936;8.716;2022-07-06T08:38:27;17.70;60.10
11229;DHT22;5671;47.936;8.716;2022-07-06T08:40:56;17.80;59.90
11229;DHT22;5671;47.936;8.716;2022-07-06T08:43:24;17.80;59.90
11229;DHT22;5671;47.936;8.716;2022-07-06T08:45:53;17.90;60.60
11229;DHT22;5671;47.936;8.716;2022-07-06T08:48:23;18.00;60.00
11229;DHT22;5671;47.936;8.716;2022-07-06T08:50:50;18.10;58.70
11229;DHT22;5671;47.936;8.716;2022-07-06T08:53:18;18.10;58.80
11229;DHT22;5671;47.936;8.716;2022-07-06T08:55:45;18.20;59.00
11229;DHT22;5671;47.936;8.716;2022-07-06T08:58:14;18.40;61.20
11229;DHT22;5671;47.936;8.716;2022-07-06T09:00:42;18.50;59.90
11229;DHT22;5671;47.936;8.716;2022-07-06T09:03:11;18.70;59.50
11229;DHT22;5671;47.936;8.716;2022-07-06T09:05:40;18.90;59.70
11229;DHT22;5671;47.936;8.716;2022-07-06T09:08:07;19.10;56.60
11229;DHT22;5671;47.936;8.716;2022-07-06T09:10:34;19.30;56.80
11229;DHT22;5671;47.936;8.716;2022-07-06T09:13:04;19.40;56.40
11229;DHT22;5671;47.936;8.716;2022-07-06T09:15:34;19.60;57.20
11229;DHT22;5671;47.936;8.716;2022-07-06T09:18:04;19.70;56.10
11229;DHT22;5671;47.936;8.716;2022-07-06T09:20:31;19.90;56.50
11229;DHT22;5671;47.936;8.716;2022-07-06T09:23:00;20.00;55.10
11229;DHT22;5671;47.936;8.716;2022-07-06T09:25:28;20.00;54.50
11229;DHT22;5671;47.936;8.716;2022-07-06T09:27:57;20.20;53.30
11229;DHT22;5671;47.936;8.716;2022-07-06T09:30:26;20.40;54.20
11229;DHT22;5671;47.936;8.716;2022-07-06T09:32:55;20.40;51.30
11229;DHT22;5671;47.936;8.716;2022-07-06T09:35:24;20.60;55.70
11229;DHT22;5671;47.936;8.716;2022-07-06T09:38:00;20.70;53.40
11229;DHT22;5671;47.936;8.716;2022-07-06T09:40:29;20.80;52.80
11229;DHT22;5671;47.936;8.716;2022-07-06T09:43:08;20.90;52.50
11229;DHT22;5671;47.936;8.716;2022-07-06T09:45:37;21.00;53.50
11229;DHT22;5671;47.936;8.716;2022-07-06T09:48:08;21.10;52.40
11229;DHT22;5671;47.936;8.716;2022-07-06T09:50:39;21.10;52.10
11229;DHT22;5671;47.936;8.716;2022-07-06T09:53:07;21.20;53.50
11229;DHT22;5671;47.936;8.716;2022-07-06T09:55:34;21.30;51.10
11229;DHT22;5671;47.936;8.716;2022-07-06T09:58:01;21.30;51.80
11229;DHT22;5671;47.936;8.716;2022-07-06T10:00:28;21.30;51.60
11229;DHT22;5671;47.936;8.716;2022-07-06T10:02:55;21.30;51.50
11229;DHT22;5671;47.936;8.716;2022-07-06T10:05:23;21.40;52.10
11229;DHT22;5671;47.936;8.716;2022-07-06T10:07:57;21.40;52.50
11229;DHT22;5671;47.936;8.716;2022-07-06T10:10:25;21.50;50.80
11229;DHT22;5671;47.936;8.716;2022-07-06T10:12:54;21.50;51.70
11229;DHT22;5671;47.936;8.716;2022-07-06T10:15:22;21.50;48.00
11229;DHT22;5671;47.936;8.716;2022-07-06T10:17:51;21.60;49.20
11229;DHT22;5671;47.936;8.716;2022-07-06T10:20:19;21.80;51.80
11229;DHT22;5671;47.936;8.716;2022-07-06T10:22:49;22.00;50.10
11229;DHT22;5671;47.936;8.716;2022-07-06T10:25:17;22.20;49.70
11229;DHT22;5671;47.936;8.716;2022-07-06T10:27:45;22.40;51.30
11229;DHT22;5671;47.936;8.716;2022-07-06T10:30:12;22.80;48.40
11229;DHT22;5671;47.936;8.716;2022-07-06T10:32:41;23.20;48.50
11229;DHT22;5671;47.936;8.716;2022-07-06T10:35:10;23.70;46.30
11229;DHT22;5671;47.936;8.716;2022-07-06T10:37:37;24.10;45.10
11229;DHT22;5671;47.936;8.716;2022-07-06T10:40:07;24.60;42.80
11229;DHT22;5671;47.936;8.716;2022-07-06T10:42:57;25.00;46.40
11229;DHT22;5671;47.936;8.716;2022-07-06T10:45:51;25.70;41.20
11229;DHT22;5671;47.936;8.716;2022-07-06T10:48:24;26.30;42.70
11229;DHT22;5671;47.936;8.716;2022-07-06T10:50:53;26.80;40.50
11229;DHT22;5671;47.936;8.716;2022-07-06T10:53:23;27.30;38.10
11229;DHT22;5671;47.936;8.716;2022-07-06T10:55:53;27.80;38.70
11229;DHT22;5671;47.936;8.716;2022-07-06T10:58:38;28.40;39.10
11229;DHT22;5671;47.936;8.716;2022-07-06T11:01:07;29.10;36.40
11229;DHT22;5671;47.936;8.716;2022-07-06T11:03:39;29.70;37.10
11229;DHT22;5671;47.936;8.716;2022-07-06T11:06:09;30.20;37.70
11229;DHT22;5671;47.936;8.716;2022-07-06T11:08:59;30.40;35.20
11229;DHT22;5671;47.936;8.716;2022-07-06T11:11:40;30.10;36.90
11229;DHT22;5671;47.936;8.716;2022-07-06T11:14:09;29.90;36.10
11229;DHT22;5671;47.936;8.716;2022-07-06T11:16:37;29.80;35.80
11229;DHT22;5671;47.936;8.716;2022-07-06T11:19:10;29.50;36.30
11229;DHT22;5671;47.936;8.716;2022-07-06T11:21:44;29.70;36.90
11229;DHT22;5671;47.936;8.716;2022-07-06T11:24:12;29.80;35.30
11229;DHT22;5671;47.936;8.716;2022-07-06T11:26:42;29.80;33.90
11229;DHT22;5671;47.936;8.716;2022-07-06T11:29:10;29.80;35.30
11229;DHT22;5671;47.936;8.716;2022-07-06T11:31:38;30.20;33.90
11229;DHT22;5671;47.936;8.716;2022-07-06T11:34:07;30.50;34.80
11229;DHT22;5671;47.936;8.716;2022-07-06T11:36:35;30.80;33.50
11229;DHT22;5671;47.936;8.716;2022-07-06T11:39:04;31.20;36.90
11229;DHT22;5671;47.936;8.716;2022-07-06T11:41:32;31.50;35.10
11229;DHT22;5671;47.936;8.716;2022-07-06T11:44:00;31.80;33.50
11229;DHT22;5671;47.936;8.716;2022-07-06T11:46:29;32.00;33.10
11229;DHT22;5671;47.936;8.716;2022-07-06T11:48:58;31.90;33.80
11229;DHT22;5671;47.936;8.716;2022-07-06T11:51:27;32.00;34.60
11229;DHT22;5671;47.936;8.716;2022-07-06T11:53:56;32.00;35.30
11229;DHT22;5671;47.936;8.716;2022-07-06T11:56:24;31.90;34.10
11229;DHT22;5671;47.936;8.716;2022-07-06T11:58:53;31.80;33.30
11229;DHT22;5671;47.936;8.716;2022-07-06T12:01:23;31.40;34.00
11229;DHT22;5671;47.936;8.716;2022-07-06T12:03:51;31.60;33.50
11229;DHT22;5671;47.936;8.716;2022-07-06T12:06:19;31.60;34.40
11229;DHT22;5671;47.936;8.716;2022-07-06T12:08:48;31.80;35.10
11229;DHT22;5671;47.936;8.716;2022-07-06T12:11:23;32.00;35.40
11229;DHT22;5671;47.936;8.716;2022-07-06T12:13:51;31.90;31.80
11229;DHT22;5671;47.936;8.716;2022-07-06T12:16:19;31.50;33.60
11229;DHT22;5671;47.936;8.716;2022-07-06T12:18:50;31.20;32.90
11229;DHT22;5671;47.936;8.716;2022-07-06T12:21:19;31.00;33.90
11229;DHT22;5671;47.936;8.716;2022-07-06T12:23:48;31.00;34.60
11229;DHT22;5671;47.936;8.716;2022-07-06T12:26:17;31.10;36.40
11229;DHT22;5671;47.936;8.716;2022-07-06T12:28:45;31.00;35.20
11229;DHT22;5671;47.936;8.716;2022-07-06T12:31:31;30.90;33.20
11229;DHT22;5671;47.936;8.716;2022-07-06T12:34:00;30.90;36.50
11229;DHT22;5671;47.936;8.716;2022-07-06T12:36:27;30.60;34.90
11229;DHT22;5671;47.936;8.716;2022-07-06T12:38:54;30.30;34.40
11229;DHT22;5671;47.936;8.716;2022-07-06T12:41:28;30.30;34.60
11229;DHT22;5671;47.936;8.716;2022-07-06T12:44:04;30.10;33.00
11229;DHT22;5671;47.936;8.716;2022-07-06T12:46:33;30.40;35.20
11229;DHT22;5671;47.936;8.716;2022-07-06T12:49:10;30.80;36.40
11229;DHT22;5671;47.936;8.716;2022-07-06T12:52:00;31.30;36.20
11229;DHT22;5671;47.936;8.716;2022-07-06T12:54:30;31.90;35.40
11229;DHT22;5671;47.936;8.716;2022-07-06T12:57:09;32.20;34.00
11229;DHT22;5671;47.936;8.716;2022-07-06T12:59:40;32.60;33.20
11229;DHT22;5671;47.936;8.716;2022-07-06T13:02:09;32.90;31.80
11229;DHT22;5671;47.936;8.716;2022-07-06T13:04:38;32.90;32.30
11229;DHT22;5671;47.936;8.716;2022-07-06T13:07:05;32.90;30.80
11229;DHT22;5671;47.936;8.716;2022-07-06T13:09:32;33.00;29.50
11229;DHT22;5671;47.936;8.716;2022-07-06T13:11:59;33.10;31.90
11229;DHT22;5671;47.936;8.716;2022-07-06T13:14:26;33.30;31.80
11229;DHT22;5671;47.936;8.716;2022-07-06T13:16:53;33.60;32.50
11229;DHT22;5671;47.936;8.716;2022-07-06T13:19:22;33.80;32.00
11229;DHT22;5671;47.936;8.716;2022-07-06T13:21:51;34.20;31.60
11229;DHT22;5671;47.936;8.716;2022-07-06T13:24:18;34.30;30.30
11229;DHT22;5671;47.936;8.716;2022-07-06T13:26:45;34.20;30.30
11229;DHT22;5671;47.936;8.716;2022-07-06T13:29:14;34.20;31.40
11229;DHT22;5671;47.936;8.716;2022-07-06T13:31:41;33.70;30.50
11229;DHT22;5671;47.936;8.716;2022-07-06T13:34:08;33.40;32.00
11229;DHT22;5671;47.936;8.716;2022-07-06T13:36:35;32.80;32.20
11229;DHT22;5671;47.936;8.716;2022-07-06T13:39:04;32.20;31.50
11229;DHT22;5671;47.936;8.716;2022-07-06T13:41:31;31.50;30.70
11229;DHT22;5671;47.936;8.716;2022-07-06T13:43:58;31.30;33.60
11229;DHT22;5671;47.936;8.716;2022-07-06T13:46:26;31.00;33.70
11229;DHT22;5671;47.936;8.716;2022-07-06T13:48:54;31.00;34.40
11229;DHT22;5671;47.936;8.716;2022-07-06T13:51:22;31.10;33.80
11229;DHT22;5671;47.936;8.716;2022-07-06T13:53:50;31.10;33.00
11229;DHT22;5671;47.936;8.716;2022-07-06T13:56:18;31.00;32.90
11229;DHT22;5671;47.936;8.716;2022-07-06T13:58:46;31.10;35.30
11229;DHT22;5671;47.936;8.716;2022-07-06T14:01:14;31.20;33.40
11229;DHT22;5671;47.936;8.716;2022-07-06T14:03:41;31.50;34.10
11229;DHT22;5671;47.936;8.716;2022-07-06T14:06:10;31.90;33.50
11229;DHT22;5671;47.936;8.716;2022-07-06T14:08:38;32.40;31.90
11229;DHT22;5671;47.936;8.716;2022-07-06T14:11:07;32.70;33.20
11229;DHT22;5671;47.936;8.716;2022-07-06T14:13:36;33.00;31.60
11229;DHT22;5671;47.936;8.716;2022-07-06T14:16:04;33.20;32.50
11229;DHT22;5671;47.936;8.716;2022-07-06T14:18:32;33.50;31.60
11229;DHT22;5671;47.936;8.716;2022-07-06T14:20:59;33.80;30.30
11229;DHT22;5671;47.936;8.716;2022-07-06T14:23:27;33.70;32.40
11229;DHT22;5671;47.936;8.716;2022-07-06T14:25:55;33.90;30.30
11229;DHT22;5671;47.936;8.716;2022-07-06T14:28:22;33.90;31.60
11229;DHT22;5671;47.936;8.716;2022-07-06T14:30:50;34.20;31.00
11229;DHT22;5671;47.936;8.716;2022-07-06T14:33:18;34.20;30.00
11229;DHT22;5671;47.936;8.716;2022-07-06T14:35:46;34.30;31.80
11229;DHT22;5671;47.936;8.716;2022-07-06T14:38:14;34.40;31.10
11229;DHT22;5671;47.936;8.716;2022-07-06T14:40:42;34.30;32.40
11229;DHT22;5671;47.936;8.716;2022-07-06T14:43:10;34.10;31.00
11229;DHT22;5671;47.936;8.716;2022-07-06T14:45:37;33.90;31.20
11229;DHT22;5671;47.936;8.716;2022-07-06T14:48:06;33.90;32.00
11229;DHT22;5671;47.936;8.716;2022-07-06T14:50:34;33.90;29.90
11229;DHT22;5671;47.936;8.716;2022-07-06T14:53:01;33.80;30.30
11229;DHT22;5671;47.936;8.716;2022-07-06T14:55:28;33.70;32.00
11229;DHT22;5671;47.936;8.716;2022-07-06T14:57:55;33.50;30.60
11229;DHT22;5671;47.936;8.716;2022-07-06T15:00:22;33.50;32.00
11229;DHT22;5671;47.936;8.716;2022-07-06T15:02:49;33.30;31.10
11229;DHT22;5671;47.936;8.716;2022-07-06T15:05:18;33.20;32.60
11229;DHT22;5671;47.936;8.716;2022-07-06T15:07:45;33.20;29.50
11229;DHT22;5671;47.936;8.716;2022-07-06T15:10:12;32.90;31.70
11229;DHT22;5671;47.936;8.716;2022-07-06T15:12:39;32.90;32.50
11229;DHT22;5671;47.936;8.716;2022-07-06T15:15:08;32.80;30.90
11229;DHT22;5671;47.936;8.716;2022-07-06T15:17:35;32.60;31.70
11229;DHT22;5671;47.936;8.716;2022-07-06T15:20:02;32.50;32.00
11229;DHT22;5671;47.936;8.716;2022-07-06T15:22:31;32.40;31.00
11229;DHT22;5671;47.936;8.716;2022-07-06T15:24:58;32.00;32.60
11229;DHT22;5671;47.936;8.716;2022-07-06T15:27:25;31.70;30.60
11229;DHT22;5671;47.936;8.716;2022-07-06T15:29:52;31.20;32.50
11229;DHT22;5671;47.936;8.716;2022-07-06T15:32:20;30.80;32.10
11229;DHT22;5671;47.936;8.716;2022-07-06T15:34:48;30.40;32.00
11229;DHT22;5671;47.936;8.716;2022-07-06T15:37:15;29.90;32.90
11229;DHT22;5671;47.936;8.716;2022-07-06T15:39:43;29.50;33.10
11229;DHT22;5671;47.936;8.716;2022-07-06T15:42:10;29.20;33.30
11229;DHT22;5671;47.936;8.716;2022-07-06T15:44:37;28.90;35.70
11229;DHT22;5671;47.936;8.716;2022-07-06T15:47:05;28.60;36.10
11229;DHT22;5671;47.936;8.716;2022-07-06T15:49:33;28.30;33.90
11229;DHT22;5671;47.936;8.716;2022-07-06T15:52:00;28.10;35.60
11229;DHT22;5671;47.936;8.716;2022-07-06T15:54:27;27.90;35.10